Time;durP1;ratioP1;P1;durP2;ratioP2;P2;SDS_P1;SDS_P2;PMS_P1;PMS_P2;Temp;Humidity;BMP_temperature;BMP_pressure;BME280_temperature;BME280_humidity;BME280_pressure;Samples;Min_cycle;Max_cycle;Signal;HPM_P1;HPM_P2
2023/07/05 00:02:23;;;;;;;6.33;4.80;;;18.00;54.40;;;17.87;51.60;97548.66;5042195;28;20535;-80
2023/07/05 00:04:51;;;;;;;5.27;4.03;;;18.00;54.50;;;17.90;51.54;97548.09;5047830;28;20445;-79
2023/07/05 00:07:18;;;;;;;6.47;4.50;;;18.00;54.70;;;17.84;51.66;97542.66;5070554;28;20536;-78
2023/07/05 00:09:45;;;;;;;4.93;4.43;;;18.00;54.70;;;17.78;51.84;97541.00;5045038;28;20949;-78
2023/07/05 00:12:13;;;;;;;5.63;4.60;;;17.90;54.70;;;17.80;51.72;97533.34;5046768;28;20477;-80
2023/07/05 00:14:40;;;;;;;5.70;4.40;;;17.90;54.80;;;17.75;51.94;97536.09;5046284;28;21638;-78
2023/07/05 00:17:08;;;;;;;4.60;4.20;;;17.90;54.70;;;17.68;51.83;97519.97;5035245;28;20458;-77
2023/07/05 00:19:36;;;;;;;5.70;4.50;;;17.90;54.80;;;17.80;51.72;97533.34;5038003;28;20462;-79
2023/07/05 00:22:04;;;;;;;4.70;4.10;;;17.90;54.70;;;17.28;51.97;97478.75;5050605;28;20552;-78
2023/07/05 00:24:32;;;;;;;8.20;3.93;;;17.80;54.60;;;17.61;52.18;97526.81;5034161;28;20457;-76
2023/07/05 00:26:59;;;;;;;4.97;4.47;;;17.80;54.80;;;17.64;52.09;97521.63;5062892;28;20457;-79
2023/07/05 00:29:27;;;;;;;4.57;3.90;;;17.80;54.90;;;17.54;52.50;97525.19;5044439;28;20550;-79
2023/07/05 00:31:54;;;;;;;8.53;3.90;;;17.70;54.80;;;17.41;52.18;97488.31;5050858;28;20449;-77
2023/07/05 00:34:22;;;;;;;6.17;4.00;;;17.70;54.90;;;17.57;52.14;97518.34;5043539;28;20516;-78
2023/07/05 00:36:50;;;;;;;6.40;4.80;;;17.70;55.00;;;17.46;52.16;97506.59;5054482;28;20485;-76
2023/07/05 00:39:17;;;;;;;8.33;4.43;;;17.60;55.00;;;17.49;52.10;97508.78;5043181;28;20455;-78
2023/07/05 00:41:44;;;;;;;6.00;4.67;;;17.60;54.80;;;17.39;51.79;97497.88;5044364;28;20563;-77
2023/07/05 00:44:14;;;;;;;5.40;4.10;;;17.50;54.80;;;17.38;52.21;97498.97;5043658;28;20453;-78
2023/07/05 00:46:48;;;;;;;6.63;4.63;;;17.50;54.90;;;17.34;52.46;97503.31;5035740;28;20462;-77
2023/07/05 00:49:18;;;;;;;5.60;4.30;;;17.40;55.10;;;17.28;52.23;97495.13;5040369;28;20457;-76
2023/07/05 00:51:56;;;;;;;5.70;4.47;;;17.40;55.10;;;17.23;52.97;97494.31;5051111;28;20799;-77
2023/07/05 00:54:29;;;;;;;4.27;3.87;;;17.30;55.30;;;17.26;52.72;97475.47;5046516;28;20481;-77
2023/07/05 00:57:01;;;;;;;5.97;3.97;;;17.40;55.70;;;17.21;52.49;97478.22;5042260;28;20450;-77
2023/07/05 00:59:32;;;;;;;5.80;4.20;;;17.30;55.20;;;17.24;52.30;97496.78;5045869;28;20449;-77
2023/07/05 01:01:59;;;;;;;4.53;3.73;;;17.30;55.10;;;17.24;52.79;97491.31;5060930;28;20460;-78
2023/07/05 01:04:27;;;;;;;7.10;5.07;;;17.30;55.20;;;17.16;52.94;97486.38;5035652;28;20503;-77
2023/07/05 01:06:55;;;;;;;6.10;4.37;;;17.30;55.50;;;17.14;53.02;97485.84;5047146;28;20744;-76
2023/07/05 01:09:26;;;;;;;5.30;4.40;;;17.20;55.40;;;17.15;52.94;97489.41;5040432;28;20547;-78
2023/07/05 01:12:03;;;;;;;5.30;4.57;;;17.20;55.50;;;17.17;52.94;97493.47;5064216;28;20512;-78
2023/07/05 01:14:41;;;;;;;6.33;4.30;;;17.20;55.60;;;17.00;53.46;97471.91;5046506;28;20557;-78
2023/07/05 01:17:17;;;;;;;5.77;4.27;;;17.20;55.80;;;17.00;53.51;97480.09;5053045;28;20464;-78
2023/07/05 01:20:09;;;;;;;6.13;4.73;;;17.10;56.00;;;16.95;54.18;97486.34;5046111;28;20461;-78
2023/07/05 01:23:05;;;;;;;5.07;4.07;;;17.00;56.40;;;16.87;54.19;97486.84;5058308;28;20453;-78
2023/07/05 01:26:02;;;;;;;6.07;4.50;;;16.90;56.60;;;16.73;55.32;97497.47;5046646;28;20458;-77
2023/07/05 01:28:51;;;;;;;5.33;4.40;;;16.70;57.00;;;16.65;55.75;97477.00;5066246;28;21000;-77
2023/07/05 01:31:41;;;;;;;5.27;4.67;;;16.70;57.60;;;16.67;55.94;97480.25;5044991;28;20458;-77
2023/07/05 01:34:15;;;;;;;4.80;4.33;;;16.70;57.90;;;16.62;56.25;97479.44;5034519;28;20477;-77
2023/07/05 01:36:43;;;;;;;7.10;4.67;;;16.60;58.20;;;16.52;57.06;97478.28;5074911;28;20861;-78
2023/07/05 01:39:10;;;;;;;5.07;4.57;;;16.60;58.90;;;16.48;56.94;97470.94;5059222;28;20543;-78
2023/07/05 01:41:37;;;;;;;6.43;4.77;;;16.60;58.90;;;16.49;57.21;97470.66;5068354;28;20463;-78
2023/07/05 01:44:05;;;;;;;5.60;5.03;;;16.60;59.20;;;16.57;57.55;97472.03;5065776;28;20441;-78
2023/07/05 01:46:39;;;;;;;6.33;4.90;;;16.60;59.60;;;16.61;57.57;97462.25;5056320;28;20982;-78
2023/07/05 01:49:31;;;;;;;6.90;5.10;;;16.70;59.80;;;16.75;57.27;97502.63;5043404;28;20509;-77
2023/07/05 01:52:08;;;;;;;6.43;5.10;;;16.80;60.20;;;16.81;56.97;97501.59;5069059;28;20453;-76
2023/07/05 01:54:46;;;;;;;6.23;4.70;;;16.90;59.70;;;16.95;56.51;97493.69;5049499;28;20567;-77
2023/07/05 01:57:20;;;;;;;7.43;5.53;;;17.00;59.50;;;16.91;56.54;97473.50;5059097;28;20461;-78
2023/07/05 01:59:56;;;;;;;5.60;4.70;;;17.10;59.60;;;16.96;56.70;97485.25;5055590;28;20457;-78
2023/07/05 02:02:29;;;;;;;7.17;5.30;;;17.10;59.70;;;16.95;56.87;97475.44;5048392;28;20494;-79
2023/07/05 02:04:58;;;;;;;5.67;4.90;;;17.10;60.00;;;17.01;57.28;97464.53;5052994;28;20454;-76
2023/07/05 02:07:27;;;;;;;5.07;4.40;;;17.10;60.20;;;16.99;57.17;97465.63;5046338;28;20457;-77
2023/07/05 02:09:56;;;;;;;5.27;4.00;;;17.20;60.40;;;17.06;57.14;97459.91;5047469;28;20493;-78
2023/07/05 02:12:24;;;;;;;8.23;4.30;;;17.20;60.50;;;17.24;57.22;97452.28;5047580;28;20469;-76
2023/07/05 02:14:52;;;;;;;7.20;4.63;;;17.30;60.70;;;17.07;57.94;97450.63;5051920;28;20495;-77
2023/07/05 02:17:20;;;;;;;9.00;4.80;;;17.30;60.80;;;17.14;57.98;97444.91;5058080;28;20471;-75
2023/07/05 02:19:49;;;;;;;4.57;3.83;;;17.40;61.30;;;17.22;57.94;97452.56;5053601;28;20443;-78
2023/07/05 02:22:16;;;;;;;5.83;4.87;;;17.30;61.50;;;17.30;58.29;97455.81;5038202;28;20458;-77
2023/07/05 02:24:43;;;;;;;4.70;4.00;;;17.30;61.90;;;17.20;58.93;97459.38;5049951;28;20442;-76
2023/07/05 02:27:10;;;;;;;5.17;4.40;;;17.30;62.30;;;17.30;59.03;97453.09;5077923;28;20553;-78
2023/07/05 02:29:38;;;;;;;5.73;4.00;;;17.40;62.80;;;17.26;59.21;97458.28;5048293;28;20707;-78
2023/07/05 02:32:06;;;;;;;6.47;4.70;;;17.40;63.20;;;17.27;59.80;97455.28;5048804;28;20472;-78
2023/07/05 02:34:38;;;;;;;5.77;5.07;;;17.40;63.90;;;17.28;59.80;97450.63;5059881;28;20474;-79
2023/07/05 02:37:07;;;;;;;5.93;4.20;;;17.40;64.40;;;17.35;60.45;97450.34;5060067;28;20472;-79
2023/07/05 02:39:34;;;;;;;5.20;3.73;;;17.40;65.00;;;17.31;60.90;97449.28;5052084;28;20461;-78
2023/07/05 02:42:03;;;;;;;4.37;3.73;;;17.40;65.70;;;17.26;61.17;97439.16;5059927;28;20454;-77
2023/07/05 02:44:31;;;;;;;4.63;3.33;;;17.40;66.60;;;17.28;61.77;97440.53;5056634;28;20461;-77
2023/07/05 02:46:58;;;;;;;4.60;3.80;;;17.40;67.50;;;17.34;61.86;97438.63;5060174;28;20454;-78
2023/07/05 02:49:25;;;;;;;3.27;2.90;;;17.40;68.10;;;17.31;62.35;97432.88;5049549;28;20464;-78
2023/07/05 02:51:54;;;;;;;3.50;3.20;;;17.40;69.00;;;17.25;62.16;97415.69;5046532;28;21069;-78
2023/07/05 02:54:23;;;;;;;5.57;3.10;;;17.40;69.40;;;17.28;62.34;97424.16;5082820;28;20477;-79
2023/07/05 02:56:50;;;;;;;3.60;2.80;;;17.40;70.10;;;17.36;62.67;97424.69;5067085;28;20480;-77
2023/07/05 02:59:18;;;;;;;3.03;2.73;;;17.40;70.40;;;17.41;62.10;97416.50;5052667;28;20454;-75
2023/07/05 03:01:45;;;;;;;3.10;2.43;;;17.50;70.60;;;17.54;62.24;97415.94;5050325;28;20543;-76
2023/07/05 03:04:13;;;;;;;6.97;3.10;;;17.60;70.90;;;17.58;62.09;97410.72;5047919;28;20453;-77
2023/07/05 03:06:41;;;;;;;2.67;2.30;;;17.60;70.80;;;17.66;62.03;97406.63;5045836;28;20541;-77
2023/07/05 03:09:08;;;;;;;2.20;2.00;;;17.70;71.20;;;17.71;62.01;97414.81;5048969;28;20449;-78
2023/07/05 03:11:36;;;;;;;2.90;2.00;;;17.80;71.30;;;17.77;61.63;97415.63;5056591;28;20511;-77
2023/07/05 03:14:04;;;;;;;3.23;1.80;;;17.80;71.40;;;17.77;62.26;97423.81;5052871;28;20457;-76
2023/07/05 03:16:31;;;;;;;2.10;1.90;;;17.80;71.80;;;17.67;62.47;97414.56;5047567;28;20445;-77
2023/07/05 03:18:58;;;;;;;1.70;1.60;;;17.80;72.10;;;17.76;62.55;97428.47;5041975;28;20451;-78
2023/07/05 03:21:26;;;;;;;2.63;1.83;;;17.80;72.50;;;17.74;62.68;97432.56;5050830;28;20757;-77
2023/07/05 03:23:53;;;;;;;2.47;1.60;;;17.80;72.70;;;17.74;62.61;97422.47;5077559;28;20497;-77
2023/07/05 03:26:20;;;;;;;2.20;1.93;;;17.80;72.90;;;17.75;62.78;97426.81;5040809;28;20453;-78
2023/07/05 03:28:49;;;;;;;2.60;1.77;;;17.80;73.30;;;17.82;62.93;97438.28;5035239;28;20462;-78
2023/07/05 03:31:18;;;;;;;1.93;1.60;;;17.80;73.60;;;17.25;62.63;97337.38;5061093;28;20530;-77
2023/07/05 03:33:46;;;;;;;2.20;1.47;;;17.90;73.50;;;17.98;62.60;97438.25;5045170;28;21012;-79
2023/07/05 03:36:16;;;;;;;2.10;1.57;;;18.00;73.60;;;17.92;62.54;97447.53;5043920;28;20474;-78
2023/07/05 03:38:44;;;;;;;4.73;1.83;;;17.90;73.50;;;18.05;62.21;97441.53;5057407;28;20508;-77
2023/07/05 03:41:16;;;;;;;2.63;1.77;;;18.00;73.30;;;18.09;62.22;97442.59;5045757;28;20460;-78
2023/07/05 03:43:45;;;;;;;1.67;1.47;;;18.10;73.50;;;18.06;62.20;97437.69;5047459;28;20453;-77
2023/07/05 03:46:16;;;;;;;1.90;1.60;;;18.20;73.50;;;18.33;61.66;97455.66;5036226;28;21178;-77
2023/07/05 03:48:46;;;;;;;1.70;1.60;;;18.30;73.40;;;18.42;61.73;97453.13;5064949;28;20556;-78
2023/07/05 03:51:16;;;;;;;2.20;1.40;;;18.40;73.40;;;18.60;60.97;97448.97;5045032;28;20674;-78
2023/07/05 03:53:44;;;;;;;4.07;1.73;;;18.50;73.10;;;18.65;61.10;97465.34;5046783;28;20454;-77
2023/07/05 03:56:12;;;;;;;3.63;1.50;;;18.60;73.20;;;18.69;60.68;97506.63;5075607;28;20499;-80
2023/07/05 03:58:40;;;;;;;5.60;4.00;;;18.60;72.80;;;17.66;61.78;97537.72;5074946;28;20451;-77
2023/07/05 04:01:12;;;;;;;7.20;4.50;;;18.00;71.70;;;17.17;61.81;97526.22;5047277;28;20541;-77
2023/07/05 04:03:41;;;;;;;5.03;4.20;;;17.50;70.90;;;17.37;61.44;97502.78;5037390;28;21160;-76
2023/07/05 04:06:08;;;;;;;5.83;4.43;;;17.50;71.30;;;17.36;61.62;97522.97;5053162;28;20507;-76
2023/07/05 04:08:35;;;;;;;5.73;4.13;;;17.50;71.60;;;17.49;61.46;97536.09;5050212;28;20441;-79
2023/07/05 04:11:02;;;;;;;6.03;4.77;;;17.60;71.80;;;17.39;61.75;97522.44;5047074;28;21201;-77
2023/07/05 04:13:30;;;;;;;4.80;4.30;;;17.60;71.70;;;17.80;60.60;97527.09;5044648;28;20442;-77
2023/07/05 04:16:01;;;;;;;6.43;4.00;;;17.80;71.60;;;18.18;59.47;97533.03;5044358;28;20481;-77
2023/07/05 04:18:30;;;;;;;5.27;4.30;;;18.20;70.90;;;17.91;59.75;97522.41;5049354;28;20536;-78
2023/07/05 04:20:59;;;;;;;6.20;4.30;;;18.10;70.60;;;17.54;61.06;97530.66;5043394;28;20458;-77
2023/07/05 04:23:27;;;;;;;5.17;3.83;;;17.90;70.90;;;17.60;61.18;97528.75;5051972;28;20441;-77
2023/07/05 04:26:00;;;;;;;5.27;3.90;;;17.70;71.20;;;17.58;61.17;97547.28;5047422;28;21232;-77
2023/07/05 04:28:28;;;;;;;5.60;3.90;;;17.60;71.50;;;17.61;61.31;97595.94;5045897;28;20520;-77
2023/07/05 04:30:56;;;;;;;5.47;4.00;;;17.70;71.80;;;17.65;61.10;97601.66;5050926;28;20462;-78
2023/07/05 04:33:23;;;;;;;2.97;2.67;;;17.70;71.70;;;17.54;61.42;97603.56;5047384;28;20462;-79
2023/07/05 04:35:53;;;;;;;5.23;3.67;;;17.70;71.80;;;17.53;61.56;97585.53;5055288;28;20469;-76
2023/07/05 04:38:21;;;;;;;5.17;3.70;;;17.70;72.10;;;17.45;62.20;97575.97;5044807;28;20503;-76
2023/07/05 04:40:49;;;;;;;4.20;3.33;;;17.60;72.20;;;17.37;62.56;97574.59;5046376;28;20449;-75
2023/07/05 04:43:16;;;;;;;3.60;3.30;;;17.60;72.40;;;17.42;62.50;97562.88;5050565;28;20448;-76
2023/07/05 04:45:50;;;;;;;5.47;3.57;;;17.70;72.80;;;17.70;62.33;97566.16;5052450;28;20457;-76
2023/07/05 04:48:18;;;;;;;3.17;2.87;;;17.80;73.30;;;17.69;62.63;97580.91;5040813;28;20490;-76
2023/07/05 04:50:45;;;;;;;4.47;2.90;;;17.80;73.20;;;17.61;63.18;97575.97;5049094;28;20996;-75
2023/07/05 04:53:12;;;;;;;4.87;3.07;;;17.80;73.60;;;17.40;65.72;97562.31;5050572;28;20566;-76
2023/07/05 04:55:46;;;;;;;3.80;3.30;;;17.60;75.50;;;17.37;67.47;97547.28;5054420;28;20527;-74
2023/07/05 04:58:14;;;;;;;3.83;3.20;;;17.50;78.10;;;17.21;67.19;97518.34;5068370;28;20457;-75
2023/07/05 05:00:46;;;;;;;5.20;3.80;;;17.40;78.40;;;17.20;67.33;97535.81;5044892;28;20480;-76
2023/07/05 05:03:13;;;;;;;4.53;2.73;;;17.40;79.30;;;17.31;67.54;97536.63;5060540;28;20462;-78
2023/07/05 05:05:43;;;;;;;4.47;3.23;;;17.40;80.00;;;17.41;67.17;97542.09;5053161;28;20461;-78
2023/07/05 05:08:10;;;;;;;4.60;3.80;;;17.40;79.80;;;17.30;66.11;97541.28;5060362;28;20458;-75
2023/07/05 05:10:38;;;;;;;4.43;2.90;;;17.40;79.30;;;17.49;65.78;97549.75;5038788;28;20899;-78
2023/07/05 05:13:08;;;;;;;5.63;4.10;;;17.50;79.30;;;17.80;66.28;97560.66;5043472;28;20450;-75
2023/07/05 05:15:37;;;;;;;4.60;3.93;;;17.60;79.90;;;17.87;67.14;97560.41;5041982;28;20485;-74
2023/07/05 05:18:04;;;;;;;5.53;3.33;;;17.80;80.60;;;18.02;67.33;97565.06;5044127;28;20453;-70
2023/07/05 05:20:32;;;;;;;5.50;4.10;;;17.90;81.30;;;18.18;67.47;97565.84;5042309;28;20458;-75
2023/07/05 05:22:59;;;;;;;4.23;3.67;;;18.10;81.60;;;17.94;68.53;97562.84;5064041;28;20458;-78
2023/07/05 05:25:27;;;;;;;4.97;4.07;;;18.00;82.10;;;17.61;70.52;97551.41;5041066;28;20453;-74
2023/07/05 05:27:55;;;;;;;4.90;3.40;;;17.80;83.50;;;17.36;72.60;97550.28;5062246;28;20449;-77
2023/07/05 05:30:24;;;;;;;4.80;4.17;;;17.60;85.40;;;17.27;73.56;97531.72;5044671;28;20652;-75
2023/07/05 05:32:51;;;;;;;5.30;3.63;;;17.50;87.80;;;16.95;72.93;97469.97;5037418;28;20559;-77
2023/07/05 05:35:20;;;;;;;6.37;3.90;;;17.50;87.80;;;17.72;74.00;97535.81;5042231;28;20578;-75
2023/07/05 05:37:47;;;;;;;5.90;3.20;;;17.70;90.30;;;17.92;71.65;97546.75;5043636;28;20956;-76
2023/07/05 05:40:15;;;;;;;8.53;6.37;;;17.90;87.90;;;18.16;70.73;97551.66;5047092;28;20450;-80
2023/07/05 05:42:42;;;;;;;6.50;4.43;;;18.20;86.70;;;18.20;70.45;97560.13;5034777;28;20499;-77
2023/07/05 05:45:11;;;;;;;6.47;4.40;;;18.30;86.10;;;18.57;70.06;97549.91;5058338;28;20491;-77
2023/07/05 05:47:39;;;;;;;4.70;4.20;;;18.50;86.00;;;18.56;70.69;97554.53;5038592;28;21226;-78
2023/07/05 05:50:07;;;;;;;4.80;3.57;;;18.60;86.10;;;18.31;70.03;97493.38;5039946;28;20456;-75
2023/07/05 05:52:35;;;;;;;5.30;3.90;;;18.70;85.70;;;18.63;69.29;97540.56;5032148;28;20466;-76
2023/07/05 05:55:03;;;;;;;4.13;3.23;;;18.70;84.90;;;18.83;69.46;97528.72;5031188;28;21106;-78
2023/07/05 05:57:30;;;;;;;5.40;2.57;;;18.80;85.50;;;19.07;67.29;97528.09;5062048;28;20467;-77
2023/07/05 05:59:57;;;;;;;3.67;2.87;;;19.00;84.00;;;19.08;67.63;97543.41;5035663;28;20508;-76
2023/07/05 06:02:24;;;;;;;3.70;2.93;;;19.10;83.70;;;18.93;68.74;97534.16;5034288;28;20915;-78
2023/07/05 06:04:53;;;;;;;3.60;2.90;;;18.90;84.40;;;18.76;68.86;97536.44;5039746;28;20461;-78
2023/07/05 06:07:20;;;;;;;4.70;2.90;;;18.90;84.70;;;18.95;69.17;97545.63;5032393;28;20557;-77
2023/07/05 06:09:49;;;;;;;3.37;2.60;;;18.90;84.80;;;18.79;68.57;97535.84;5034531;28;20459;-75
2023/07/05 06:12:17;;;;;;;3.03;2.30;;;18.90;84.50;;;18.71;69.18;97541.91;5068225;28;20882;-77
2023/07/05 06:14:44;;;;;;;3.37;2.83;;;18.80;84.50;;;18.88;68.85;97538.81;5038719;28;20458;-77
2023/07/05 06:17:11;;;;;;;3.43;2.40;;;18.80;84.80;;;18.69;69.05;97543.00;5047369;28;21004;-77
2023/07/05 06:19:39;;;;;;;3.17;2.40;;;18.70;84.60;;;18.85;68.58;97551.13;5040025;28;20525;-79
2023/07/05 06:22:08;;;;;;;3.93;2.80;;;18.80;84.70;;;18.97;68.42;97548.91;5050330;28;20456;-75
2023/07/05 06:24:35;;;;;;;3.20;2.23;;;18.90;84.60;;;18.91;68.74;97550.03;5050327;28;20454;-76
2023/07/05 06:27:03;;;;;;;4.23;2.43;;;18.90;84.90;;;18.99;67.98;97556.88;5039875;28;20506;-78
2023/07/05 06:29:31;;;;;;;2.30;1.87;;;19.00;84.20;;;19.02;68.18;97566.41;5040271;28;20531;-76
2023/07/05 06:31:58;;;;;;;2.20;1.90;;;19.10;84.10;;;19.18;66.65;97567.97;5036921;28;20465;-76
2023/07/05 06:34:26;;;;;;;1.80;1.70;;;19.10;83.30;;;19.07;67.27;97574.63;5037701;28;20453;-75
2023/07/05 06:36:53;;;;;;;4.97;2.23;;;19.10;83.40;;;19.05;67.95;97571.34;5030662;28;20477;-76
2023/07/05 06:39:22;;;;;;;1.87;1.73;;;19.10;83.60;;;19.32;67.17;97564.59;5038323;28;21005;-78
2023/07/05 06:41:49;;;;;;;4.50;2.03;;;19.30;83.80;;;19.32;67.36;97564.59;5040372;28;20452;-75
2023/07/05 06:44:16;;;;;;;2.23;1.70;;;19.30;83.60;;;19.28;67.39;97558.06;5065312;28;20451;-75
2023/07/05 06:46:45;;;;;;;4.40;2.97;;;19.30;83.60;;;19.19;68.01;97558.69;5021955;28;20568;-74
2023/07/05 06:49:12;;;;;;;2.73;1.93;;;19.20;83.80;;;19.46;66.92;97560.13;5038608;28;20449;-76
2023/07/05 06:51:40;;;;;;;2.40;1.83;;;19.40;83.80;;;19.13;68.61;97565.25;5043477;28;20457;-76
2023/07/05 06:54:07;;;;;;;2.37;1.70;;;19.30;84.00;;;19.48;66.99;97555.16;5046718;28;20452;-75
2023/07/05 06:56:37;;;;;;;1.80;1.37;;;19.40;83.90;;;19.77;66.77;97570.84;5059312;28;20482;-79
2023/07/05 06:59:05;;;;;;;2.67;2.27;;;19.60;84.00;;;19.96;65.72;97567.44;5040584;28;20989;-78
2023/07/05 07:01:32;;;;;;;2.00;1.77;;;19.80;83.30;;;19.73;66.76;97563.50;5030532;28;20464;-81
2023/07/05 07:03:59;;;;;;;1.90;1.70;;;19.80;83.10;;;20.06;66.02;97559.09;5035987;28;20480;-80
2023/07/05 07:06:27;;;;;;;3.13;1.80;;;20.00;83.30;;;20.05;66.01;97560.22;5032332;28;20467;-76
2023/07/05 07:08:54;;;;;;;2.10;1.60;;;19.90;83.10;;;19.91;66.19;97565.53;5036399;28;20468;-76
2023/07/05 07:11:21;;;;;;;1.53;1.43;;;20.00;82.60;;;19.75;66.66;97555.81;5037279;28;21114;-75
2023/07/05 07:13:50;;;;;;;1.80;1.30;;;20.00;82.70;;;19.86;66.52;97568.31;5028264;28;20554;-75
2023/07/05 07:16:18;;;;;;;1.43;1.30;;;20.00;82.80;;;20.45;64.60;97562.81;5030839;28;20474;-77
2023/07/05 07:18:48;;;;;;;3.93;1.63;;;20.40;82.40;;;20.80;63.31;97552.59;5053997;28;20471;-78
2023/07/05 07:21:17;;;;;;;1.37;1.10;;;20.70;81.40;;;20.63;63.44;97554.97;5049214;28;20455;-75
2023/07/05 07:23:47;;;;;;;2.33;1.67;;;20.70;81.30;;;20.58;63.94;97577.78;5039562;28;20465;-75
2023/07/05 07:26:17;;;;;;;2.17;1.53;;;20.70;81.30;;;20.56;64.07;97579.19;5033351;28;20758;-75
2023/07/05 07:28:48;;;;;;;2.37;1.40;;;20.60;81.60;;;20.74;63.05;97572.91;5035951;28;20451;-77
2023/07/05 07:31:20;;;;;;;2.17;1.30;;;20.60;81.10;;;20.73;63.23;97574.03;5040648;28;20549;-76
2023/07/05 07:33:48;;;;;;;2.27;1.43;;;20.60;81.20;;;20.95;62.43;97572.72;5032668;28;20950;-76
2023/07/05 07:36:19;;;;;;;1.77;1.37;;;20.90;80.70;;;20.77;62.99;97588.00;5032615;28;20481;-76
2023/07/05 07:38:47;;;;;;;1.67;1.13;;;20.70;80.80;;;21.04;61.84;97581.09;5032299;28;21362;-76
2023/07/05 07:41:19;;;;;;;1.63;1.10;;;21.00;80.30;;;21.37;60.88;97581.19;5028894;28;20959;-77
2023/07/05 07:43:47;;;;;;;1.33;1.20;;;21.30;79.70;;;21.66;60.19;97577.50;5037127;28;20474;-78
2023/07/05 07:46:18;;;;;;;1.10;1.00;;;21.60;79.40;;;21.85;59.97;97585.72;5038856;28;21900;-78
2023/07/05 07:48:49;;;;;;;2.23;1.30;;;21.60;79.10;;;22.31;58.35;97573.09;5029623;28;20500;-78
2023/07/05 07:51:17;;;;;;;1.70;1.40;;;22.10;78.60;;;22.12;58.88;97566.84;5032138;28;20466;-79
2023/07/05 07:53:44;;;;;;;1.95;1.52;;;22.10;78.20;;;22.39;58.56;97576.25;5030259;28;20452;-77
2023/07/05 07:56:13;;;;;;;2.23;1.20;;;22.30;78.00;;;22.19;58.81;97564.50;5049050;28;20284;-76
2023/07/05 07:58:41;;;;;;;1.60;1.27;;;22.30;77.50;;;21.77;59.96;97561.66;5041124;28;20970;-77
2023/07/05 08:01:13;;;;;;;2.20;1.50;;;21.90;77.80;;;21.82;59.50;97564.31;5030716;28;20470;-76
2023/07/05 08:03:42;;;;;;;1.57;1.30;;;21.70;78.10;;;20.90;62.53;97570.84;5040932;28;20462;-77
2023/07/05 08:06:11;;;;;;;2.10;1.13;;;21.20;78.70;;;21.00;62.26;97566.31;5063955;28;20811;-77
2023/07/05 08:08:40;;;;;;;1.60;1.40;;;21.00;79.40;;;20.71;63.06;97580.94;5030798;28;20469;-76
2023/07/05 08:11:08;;;;;;;1.60;1.20;;;20.70;79.60;;;21.06;61.99;97576.94;5038565;28;20568;-78
2023/07/05 08:13:40;;;;;;;1.90;1.30;;;20.80;79.90;;;21.12;61.69;97585.94;5033387;28;20450;-77
2023/07/05 08:16:07;;;;;;;2.93;1.30;;;21.00;79.50;;;21.15;62.46;97568.84;5037555;28;20583;-80
2023/07/05 08:18:35;;;;;;;0.90;0.80;;;21.10;80.40;;;21.91;60.59;97567.19;5036702;28;20477;-76
2023/07/05 08:21:04;;;;;;;1.73;1.30;;;21.40;80.10;;;22.19;59.44;97572.75;5042132;28;20761;-80
2023/07/05 08:23:31;;;;;;;1.47;1.03;;;21.80;79.30;;;22.12;59.27;97577.84;5038590;28;20949;-78
2023/07/05 08:26:01;;;;;;;2.27;1.17;;;21.90;78.70;;;21.51;61.35;97582.09;5031363;28;21029;-76
2023/07/05 08:28:32;;;;;;;2.23;1.60;;;21.60;78.90;;;21.41;62.85;97601.47;5034094;28;20461;-77
2023/07/05 08:31:01;;;;;;;2.97;1.43;;;21.40;80.20;;;21.16;65.64;97611.72;5035697;28;20442;-74
2023/07/05 08:33:32;;;;;;;2.33;1.37;;;21.20;82.30;;;20.71;66.87;97619.38;5065176;28;20577;-77
2023/07/05 08:36:17;;;;;;;3.40;1.30;;;20.90;82.80;;;20.72;69.49;97630.03;5049339;28;20472;-78
2023/07/05 08:38:49;;;;;;;1.30;1.20;;;20.60;85.70;;;20.31;70.40;97624.97;5033358;28;20519;-79
2023/07/05 08:41:25;;;;;;;2.13;1.60;;;20.30;86.50;;;19.98;72.37;97652.13;5026535;28;20881;-77
2023/07/05 08:44:01;;;;;;;2.10;1.77;;;20.00;88.90;;;19.17;76.16;97669.56;5028234;28;20462;-84
2023/07/05 08:46:30;;;;;;;2.67;1.37;;;19.50;91.10;;;17.80;83.93;97691.00;5054823;28;20569;-79
2023/07/05 08:49:02;;;;;;;1.70;1.40;;;18.40;94.60;;;16.79;91.19;97697.44;5029698;28;21253;-83
2023/07/05 08:51:32;;;;;;;1.80;1.03;;;17.40;99.90;;;16.26;97.63;97698.16;5061466;28;20449;-80
2023/07/05 08:54:04;;;;;;;1.23;0.97;;;16.80;99.90;;;16.06;100.00;97694.19;5027174;28;20790;-81
2023/07/05 08:56:38;;;;;;;1.60;1.00;;;16.50;99.90;;;15.97;100.00;97690.28;5035243;28;20504;-79
2023/07/05 08:59:15;;;;;;;2.10;1.17;;;16.20;99.90;;;16.04;100.00;97682.72;5031732;28;20461;-82
2023/07/05 09:01:44;;;;;;;2.00;1.37;;;16.30;99.90;;;16.12;100.00;97681.44;5024753;28;20452;-82
2023/07/05 09:04:17;;;;;;;1.67;1.57;;;16.30;99.90;;;16.17;100.00;97695.09;5025322;28;20458;-81
2023/07/05 09:06:55;;;;;;;1.70;1.30;;;16.40;99.90;;;16.30;100.00;97696.53;5025155;28;20714;-78
2023/07/05 09:09:39;;;;;;;1.93;1.20;;;16.40;99.90;;;16.43;100.00;97698.03;5028637;28;20510;-78
2023/07/05 09:12:17;;;;;;;3.77;1.63;;;16.50;99.90;;;16.00;100.00;97657.91;5029771;28;20462;-80
2023/07/05 09:15:08;;;;;;;1.93;1.00;;;16.50;99.90;;;16.38;100.00;97677.00;5028128;28;20460;-81
2023/07/05 09:17:50;;;;;;;3.40;1.20;;;16.50;99.90;;;16.27;100.00;97697.91;5033945;28;20489;-84
2023/07/05 09:20:54;;;;;;;1.60;1.10;;;16.40;99.90;;;16.41;100.00;97700.19;5031983;28;20460;-81
2023/07/05 09:23:29;;;;;;;3.13;1.77;;;16.50;99.90;;;16.39;100.00;97703.16;5027864;28;20487;-82
2023/07/05 09:26:04;;;;;;;2.33;1.53;;;16.50;99.90;;;16.47;100.00;97704.59;5039638;28;20837;-81
2023/07/05 09:28:37;;;;;;;2.73;1.50;;;16.50;99.90;;;16.63;100.00;97702.81;5030087;28;20475;-82
2023/07/05 09:31:12;;;;;;;2.70;1.67;;;16.60;99.90;;;16.70;100.00;97703.38;5031978;28;20466;-78
2023/07/05 09:33:47;;;;;;;1.90;1.47;;;16.70;99.90;;;16.55;100.00;97700.56;5028675;28;20488;-80
2023/07/05 09:36:22;;;;;;;2.00;1.70;;;16.70;99.90;;;16.68;100.00;97705.56;5051064;28;20469;-81
2023/07/05 09:38:58;;;;;;;3.80;1.80;;;16.70;99.90;;;16.84;100.00;97703.75;5048113;28;20429;-78
2023/07/05 09:41:53;;;;;;;1.80;1.60;;;16.80;99.90;;;16.99;100.00;97699.50;5038834;28;21047;-80
2023/07/05 09:44:21;;;;;;;1.50;1.30;;;16.90;99.90;;;17.01;100.00;97712.84;5046063;28;20454;-80
2023/07/05 09:46:48;;;;;;;1.90;1.80;;;16.90;99.90;;;17.08;98.53;97702.53;5044395;28;20469;-82
2023/07/05 09:49:18;;;;;;;2.33;1.77;;;17.00;99.90;;;17.40;98.83;97701.56;5040029;28;20511;-82
2023/07/05 09:51:46;;;;;;;2.07;1.87;;;17.30;99.90;;;17.46;95.59;97708.69;5035193;28;20525;-84
2023/07/05 09:54:21;;;;;;;4.93;1.63;;;17.40;99.90;;;17.94;95.46;97696.75;5050228;28;20446;-81
2023/07/05 09:57:01;;;;;;;1.90;1.50;;;17.70;99.90;;;18.21;93.40;97690.25;5085766;28;20478;-80
2023/07/05 09:59:29;;;;;;;3.17;2.40;;;18.10;99.90;;;18.47;93.17;97687.50;5045624;28;20965;-82
2023/07/05 10:02:09;;;;;;;2.00;1.80;;;18.40;99.90;;;19.22;91.06;97686.81;5034069;28;20462;-84
2023/07/05 10:04:45;;;;;;;3.23;1.80;;;18.90;99.90;;;19.69;88.23;97689.31;5036213;28;20462;-82
2023/07/05 10:07:16;;;;;;;2.53;2.33;;;19.40;99.90;;;19.97;86.27;97692.44;5053683;28;20463;-83
2023/07/05 10:10:01;;;;;;;3.53;2.07;;;19.90;99.10;;;20.57;84.86;97691.41;5041226;28;20477;-84
2023/07/05 10:12:34;;;;;;;3.30;1.97;;;20.30;98.90;;;20.91;78.78;97698.78;5038638;28;20451;-80
2023/07/05 10:15:03;;;;;;;2.40;2.07;;;20.80;93.80;;;21.14;75.95;97703.75;5035077;28;20479;-78
2023/07/05 10:17:45;;;;;;;1.87;1.77;;;20.90;92.10;;;21.43;73.29;97698.16;5025815;28;20494;-76
2023/07/05 10:20:21;;;;;;;3.83;1.83;;;21.30;91.30;;;21.04;74.24;97702.72;5035957;28;21087;-75
2023/07/05 10:22:49;;;;;;;1.83;1.73;;;21.10;90.90;;;20.73;77.00;97713.22;5040847;28;20461;-83
2023/07/05 10:25:21;;;;;;;1.67;1.57;;;20.90;91.80;;;20.53;75.87;97717.75;5040637;28;20468;-84
2023/07/05 10:27:50;;;;;;;2.77;2.10;;;20.60;91.20;;;20.17;77.39;97718.06;5032567;28;20451;-84
2023/07/05 10:30:20;;;;;;;2.03;1.83;;;20.40;91.60;;;19.97;77.26;97717.13;5068824;28;20450;-80
2023/07/05 10:33:07;;;;;;;2.40;1.83;;;20.20;91.70;;;19.67;78.78;97705.22;5031123;28;20470;-82